createdAt,value
2023-05-14T00:00:33.411Z,0.10
2023-05-14T00:03:27.911Z,0.00
2023-05-14T00:06:02.119Z,0.00
2023-05-14T00:08:37.185Z,0.00
2023-05-14T00:11:11.087Z,0.10
2023-05-14T00:13:45.031Z,0.10
2023-05-14T00:16:19.145Z,0.10
2023-05-14T00:18:53.304Z,0.10
2023-05-14T00:21:29.485Z,0.20
2023-05-14T00:24:03.444Z,0.10
2023-05-14T00:26:37.011Z,0.20
2023-05-14T00:29:13.675Z,0.30
2023-05-14T00:31:47.412Z,0.10
2023-05-14T00:34:21.081Z,0.10
2023-05-14T00:36:55.161Z,0.00
2023-05-14T00:39:29.997Z,0.10
2023-05-14T00:42:03.830Z,0.00
2023-05-14T00:44:38.180Z,0.20
2023-05-14T00:47:13.047Z,0.00
2023-05-14T00:49:47.498Z,0.10
2023-05-14T00:52:22.728Z,0.00
2023-05-14T00:54:56.345Z,0.00
2023-05-14T00:57:30.058Z,0.00
2023-05-14T01:00:04.051Z,0.10
2023-05-14T01:02:37.855Z,0.10
2023-05-14T01:05:12.557Z,0.10
2023-05-14T01:07:54.875Z,0.10
2023-05-14T01:10:34.915Z,0.10
2023-05-14T01:13:15.254Z,0.00
2023-05-14T01:15:49.979Z,0.10
2023-05-14T01:18:24.550Z,0.00
2023-05-14T01:20:58.418Z,0.20
2023-05-14T01:23:33.964Z,0.20
2023-05-14T01:26:11.164Z,0.20
2023-05-14T01:28:44.983Z,0.00
2023-05-14T01:31:25.522Z,0.00
2023-05-14T01:33:59.933Z,0.10
2023-05-14T01:36:34.248Z,0.10
2023-05-14T01:39:09.960Z,0.40
2023-05-14T01:41:43.684Z,0.20
2023-05-14T01:44:17.168Z,0.00
2023-05-14T01:46:50.765Z,0.10
2023-05-14T01:49:24.954Z,0.00
2023-05-14T01:51:58.750Z,0.10
2023-05-14T01:54:34.870Z,0.00
2023-05-14T01:57:09.938Z,0.00
2023-05-14T01:59:43.755Z,0.10
2023-05-14T02:02:19.672Z,0.20
2023-05-14T02:04:53.767Z,0.00
2023-05-14T02:07:27.611Z,0.30
2023-05-14T02:10:01.661Z,0.10
2023-05-14T02:12:35.474Z,0.10
2023-05-14T02:15:11.391Z,0.10
2023-05-14T02:17:46.101Z,0.30
2023-05-14T02:20:20.484Z,0.10
2023-05-14T02:22:54.078Z,0.10
2023-05-14T02:25:28.224Z,0.30
2023-05-14T02:28:02.093Z,0.10
2023-05-14T02:30:35.728Z,0.20
2023-05-14T02:33:09.443Z,0.20
2023-05-14T02:35:44.210Z,1.30
2023-05-14T02:38:17.680Z,0.00
2023-05-14T02:40:51.263Z,0.10
2023-05-14T02:43:24.918Z,0.10
2023-05-14T02:45:58.547Z,0.10
2023-05-14T02:48:31.843Z,0.30
2023-05-14T02:51:06.691Z,0.10
2023-05-14T02:53:40.962Z,0.10
2023-05-14T02:56:14.445Z,0.10
2023-05-14T02:58:49.605Z,0.20
2023-05-14T03:01:23.827Z,0.00
2023-05-14T03:03:58.111Z,0.10
2023-05-14T03:06:32.241Z,0.10
2023-05-14T03:09:05.856Z,0.20
2023-05-14T03:11:39.733Z,0.20
2023-05-14T03:14:13.652Z,0.70
2023-05-14T03:16:47.344Z,0.10
2023-05-14T03:19:20.838Z,0.10
2023-05-14T03:21:54.578Z,0.20
2023-05-14T03:24:28.382Z,0.00
2023-05-14T03:27:01.952Z,0.10
2023-05-14T03:29:35.590Z,0.10
2023-05-14T03:32:10.923Z,0.10
2023-05-14T03:34:45.260Z,0.10
2023-05-14T03:37:19.224Z,0.20
2023-05-14T03:39:52.695Z,0.20
2023-05-14T03:42:26.298Z,0.10
2023-05-14T03:45:03.076Z,0.10
2023-05-14T03:47:36.779Z,0.10
2023-05-14T03:50:12.028Z,0.20
2023-05-14T03:52:46.418Z,0.00
2023-05-14T03:55:21.359Z,0.10
2023-05-14T03:57:55.436Z,0.20
2023-05-14T04:00:29.137Z,0.10
2023-05-14T04:03:03.092Z,0.20
2023-05-14T04:05:38.017Z,0.20
2023-05-14T04:08:11.647Z,0.20
2023-05-14T04:10:46.873Z,0.10
2023-05-14T04:13:20.860Z,0.10
2023-05-14T04:15:55.280Z,0.10
2023-05-14T04:18:29.154Z,0.20
2023-05-14T04:21:03.358Z,0.20
2023-05-14T04:23:37.381Z,0.20
2023-05-14T04:26:11.142Z,0.10
2023-05-14T04:28:44.768Z,0.10
2023-05-14T04:31:19.498Z,0.20
2023-05-14T04:33:53.144Z,0.10
2023-05-14T04:36:26.729Z,0.30
2023-05-14T04:39:00.226Z,0.20
2023-05-14T04:41:35.293Z,0.00
2023-05-14T04:44:09.459Z,0.10
2023-05-14T04:46:43.207Z,0.40
2023-05-14T04:49:17.855Z,0.10
2023-05-14T04:51:52.206Z,0.10
2023-05-14T04:54:26.296Z,0.10
2023-05-14T04:57:03.490Z,0.40
2023-05-14T04:59:37.341Z,0.30
2023-05-14T05:02:11.243Z,0.20
2023-05-14T05:04:45.137Z,0.10
2023-05-14T05:07:18.662Z,0.10
2023-05-14T05:09:52.368Z,0.30
2023-05-14T05:12:26.470Z,0.20
2023-05-14T05:15:00.065Z,0.20
2023-05-14T05:17:34.120Z,0.20
2023-05-14T05:20:11.264Z,0.10
2023-05-14T05:22:45.333Z,0.20
2023-05-14T05:25:19.582Z,0.10
2023-05-14T05:27:53.343Z,0.10
2023-05-14T05:30:37.475Z,0.20
2023-05-14T05:33:11.707Z,0.30
2023-05-14T05:35:45.302Z,0.10
2023-05-14T05:38:26.580Z,0.20
2023-05-14T05:52:50.790Z,1.80
2023-05-14T05:55:24.857Z,0.30
2023-05-14T05:57:58.769Z,0.10
2023-05-14T06:00:32.607Z,0.00
2023-05-14T06:03:06.974Z,0.20
2023-05-14T06:05:43.793Z,0.10
2023-05-14T06:08:17.871Z,0.60
2023-05-14T06:10:52.486Z,0.30
2023-05-14T06:13:26.261Z,0.30
2023-05-14T06:15:59.987Z,0.20
2023-05-14T06:18:40.652Z,0.30
2023-05-14T06:21:14.358Z,0.10
2023-05-14T06:23:48.341Z,0.40
2023-05-14T06:26:22.274Z,0.40
2023-05-14T06:28:57.721Z,0.10
2023-05-14T06:31:31.602Z,0.40
2023-05-14T06:34:07.005Z,0.40
2023-05-14T06:36:43.807Z,0.20
2023-05-14T06:39:17.379Z,0.40
2023-05-14T06:41:51.108Z,0.30
2023-05-14T06:44:26.364Z,0.70
2023-05-14T06:46:59.948Z,0.50
2023-05-14T06:49:35.332Z,0.60
2023-05-14T06:52:09.660Z,0.30
2023-05-14T06:54:43.269Z,0.60
2023-05-14T06:57:17.182Z,0.10
2023-05-14T06:59:54.179Z,0.30
2023-05-14T07:02:27.802Z,0.10
2023-05-14T07:05:03.683Z,0.40
2023-05-14T07:07:37.503Z,0.60
2023-05-14T07:10:15.440Z,0.10
2023-05-14T07:12:52.035Z,0.30
2023-05-14T07:15:27.839Z,0.40
2023-05-14T07:18:01.856Z,0.20
2023-05-14T07:20:35.636Z,0.40
2023-05-14T07:23:09.165Z,0.20
2023-05-14T07:25:42.840Z,0.30
2023-05-14T07:28:16.537Z,0.20
2023-05-14T07:30:51.952Z,0.20
2023-05-14T07:33:26.526Z,1.80
2023-05-14T07:36:02.920Z,0.30
2023-05-14T07:38:40.893Z,0.20
2023-05-14T07:41:14.433Z,0.40
2023-05-14T07:43:49.332Z,0.50
2023-05-14T07:46:30.248Z,0.50
2023-05-14T07:49:04.780Z,0.20
2023-05-14T07:51:40.202Z,0.40
2023-05-14T07:54:19.002Z,0.40
2023-05-14T07:56:56.024Z,0.30
2023-05-14T07:59:30.354Z,0.40
2023-05-14T08:02:19.394Z,0.10
2023-05-14T08:04:56.257Z,0.90
2023-05-14T08:07:30.518Z,0.40
2023-05-14T08:10:07.383Z,0.10
2023-05-14T08:12:41.610Z,0.10
2023-05-14T08:15:19.225Z,0.30
2023-05-14T08:17:52.898Z,0.40
2023-05-14T08:20:27.643Z,1.00
2023-05-14T08:23:01.960Z,0.30
2023-05-14T08:31:30.891Z,0.30
2023-05-14T08:34:01.740Z,0.20
2023-05-14T08:36:33.705Z,0.30
2023-05-14T08:39:04.227Z,0.50
2023-05-14T08:41:34.777Z,0.40
2023-05-14T08:44:09.427Z,0.50
2023-05-14T08:46:40.832Z,0.30
2023-05-14T08:49:32.232Z,0.30
2023-05-14T08:52:03.008Z,0.60
2023-05-14T08:54:33.709Z,0.10
2023-05-14T08:57:05.270Z,0.30
2023-05-14T08:59:36.186Z,0.80
2023-05-14T09:02:07.934Z,0.50
2023-05-14T09:04:39.058Z,0.40
2023-05-14T09:07:09.569Z,0.30
2023-05-14T09:09:41.323Z,0.40
2023-05-14T09:12:12.306Z,0.20
2023-05-14T09:14:42.649Z,0.50
2023-05-14T09:17:12.887Z,0.60
2023-05-14T09:19:45.193Z,0.50
2023-05-14T09:22:23.118Z,0.40
2023-05-14T09:25:06.687Z,0.60
2023-05-14T09:27:37.431Z,0.40
2023-05-14T09:30:10.643Z,0.10
2023-05-14T09:33:21.462Z,0.20
2023-05-14T09:36:00.715Z,0.20
2023-05-14T09:38:31.559Z,0.30
2023-05-14T09:41:02.303Z,0.30
2023-05-14T09:43:33.292Z,0.40
2023-05-14T09:46:03.683Z,0.10
2023-05-14T09:48:34.607Z,0.30
2023-05-14T09:51:07.664Z,0.30
2023-05-14T09:53:38.106Z,0.20
2023-05-14T09:56:08.921Z,0.50
2023-05-14T09:58:39.265Z,0.10
2023-05-14T10:01:19.365Z,0.40
2023-05-14T10:03:56.264Z,0.10
2023-05-14T10:06:39.717Z,0.30
2023-05-14T10:09:13.496Z,0.50
2023-05-14T10:11:47.202Z,0.30
2023-05-14T10:14:31.707Z,0.20
2023-05-14T10:17:19.160Z,0.40
2023-05-14T10:20:05.523Z,0.50
2023-05-14T10:22:36.513Z,0.30
2023-05-14T10:25:10.775Z,0.20
2023-05-14T10:27:41.203Z,0.30
2023-05-14T10:30:16.959Z,1.20
2023-05-14T10:32:48.052Z,0.60
2023-05-14T10:35:20.304Z,0.60
2023-05-14T10:37:52.695Z,0.50
2023-05-14T10:40:25.861Z,0.90
2023-05-14T10:42:57.807Z,1.30
2023-05-14T10:45:30.862Z,0.90
2023-05-14T10:48:02.095Z,0.90
2023-05-14T10:50:32.713Z,0.50
2023-05-14T10:53:02.946Z,0.60
2023-05-14T10:55:36.646Z,1.00
2023-05-14T10:58:08.338Z,1.00
2023-05-14T11:00:39.482Z,0.20
2023-05-14T11:03:10.792Z,1.30
2023-05-14T11:05:43.388Z,0.90
2023-05-14T11:08:14.277Z,1.40
2023-05-14T11:10:46.647Z,0.40
2023-05-14T11:13:18.430Z,1.50
2023-05-14T11:15:49.342Z,0.80
2023-05-14T11:18:32.245Z,1.30
2023-05-14T11:21:03.099Z,0.80
2023-05-14T11:23:33.431Z,0.90
2023-05-14T11:26:04.010Z,0.60
2023-05-14T11:28:34.857Z,0.60
2023-05-14T11:31:05.413Z,0.60
2023-05-14T11:33:35.792Z,2.50
2023-05-14T11:36:07.254Z,1.10
2023-05-14T11:38:48.677Z,1.30
2023-05-14T11:41:21.689Z,3.10
2023-05-14T11:43:54.846Z,0.90
2023-05-14T11:46:25.981Z,1.40
2023-05-14T11:48:56.364Z,0.50
2023-05-14T11:51:26.869Z,0.60
2023-05-14T11:53:58.606Z,0.50
2023-05-14T11:56:29.096Z,0.40
2023-05-14T11:58:59.757Z,1.00
2023-05-14T12:01:38.045Z,0.70
2023-05-14T12:04:08.639Z,1.10
2023-05-14T12:06:41.091Z,0.70
2023-05-14T12:09:16.291Z,1.20
2023-05-14T12:11:46.789Z,0.50
2023-05-14T12:14:19.528Z,1.00
2023-05-14T12:16:50.727Z,1.10
2023-05-14T12:19:23.144Z,0.50
2023-05-14T12:21:53.878Z,0.50
2023-05-14T12:24:27.398Z,0.90
2023-05-14T12:26:57.850Z,0.40
2023-05-14T12:29:28.152Z,0.80
2023-05-14T12:31:59.342Z,0.40
2023-05-14T12:34:29.528Z,0.40
2023-05-14T12:37:00.188Z,1.30
2023-05-14T12:39:31.126Z,1.00
2023-05-14T12:42:02.297Z,0.90
2023-05-14T12:44:34.267Z,0.70
2023-05-14T12:47:05.078Z,0.80
2023-05-14T12:49:36.032Z,0.90
2023-05-14T12:52:25.684Z,0.80
2023-05-14T12:55:00.793Z,0.40
2023-05-14T12:57:31.245Z,0.60
2023-05-14T13:00:01.728Z,0.80
2023-05-14T13:02:42.668Z,0.70
2023-05-14T13:05:14.959Z,0.30
2023-05-14T13:07:45.318Z,0.50
2023-05-14T13:10:18.094Z,0.50
2023-05-14T13:12:48.438Z,1.50
2023-05-14T13:15:18.747Z,0.70
2023-05-14T13:17:50.049Z,1.30
2023-05-14T13:20:25.694Z,0.40
2023-05-14T13:22:56.140Z,0.40
2023-05-14T13:25:27.372Z,0.30
2023-05-14T13:28:05.885Z,0.80
2023-05-14T13:30:36.262Z,0.20
2023-05-14T13:33:07.994Z,0.40
2023-05-14T13:35:40.194Z,0.70
2023-05-14T13:38:11.105Z,0.30
2023-05-14T13:40:41.556Z,0.20
2023-05-14T13:43:11.805Z,0.80
2023-05-14T13:45:41.998Z,0.30
2023-05-14T13:48:15.481Z,0.60
2023-05-14T13:50:46.020Z,0.70
2023-05-14T13:53:16.154Z,0.40
2023-05-14T13:55:47.885Z,0.40
2023-05-14T13:58:19.645Z,0.40
2023-05-14T14:00:52.912Z,0.50
2023-05-14T14:03:23.226Z,1.00
2023-05-14T14:05:54.506Z,0.40
2023-05-14T14:08:24.921Z,0.90
2023-05-14T14:10:56.804Z,0.60
2023-05-14T14:13:27.883Z,0.50
2023-05-14T14:15:57.950Z,0.60
2023-05-14T14:18:29.093Z,0.30
2023-05-14T14:20:59.875Z,0.50
2023-05-14T14:23:30.379Z,0.40
2023-05-14T14:26:00.989Z,2.10
2023-05-14T14:28:31.584Z,0.80
2023-05-14T14:31:02.005Z,1.40
2023-05-14T14:33:32.704Z,1.00
2023-05-14T14:36:04.288Z,0.60
2023-05-14T14:38:34.803Z,0.40
2023-05-14T14:41:06.838Z,1.10
2023-05-14T14:43:41.152Z,0.70
2023-05-14T14:46:13.910Z,0.80
2023-05-14T14:48:47.428Z,1.00
2023-05-14T14:51:18.223Z,1.20
2023-05-14T14:53:49.298Z,1.70
2023-05-14T14:56:20.788Z,2.50
2023-05-14T14:58:53.278Z,0.80
2023-05-14T15:01:25.455Z,0.70
2023-05-14T15:03:56.427Z,0.50
2023-05-14T15:06:26.616Z,0.80
2023-05-14T15:08:56.867Z,1.20
2023-05-14T15:11:27.181Z,0.90
2023-05-14T15:13:57.587Z,0.50
2023-05-14T15:16:27.880Z,0.60
2023-05-14T15:18:58.378Z,0.50
2023-05-14T15:21:29.100Z,0.50
2023-05-14T15:23:59.766Z,0.40
2023-05-14T15:26:29.882Z,0.80
2023-05-14T15:29:00.608Z,0.80
2023-05-14T15:31:32.530Z,0.30
2023-05-14T15:34:03.357Z,1.00
2023-05-14T15:36:33.806Z,1.20
2023-05-14T15:39:04.128Z,0.30
2023-05-14T15:41:34.587Z,1.00
2023-05-14T15:44:07.445Z,1.20
2023-05-14T15:46:38.338Z,0.60
2023-05-14T15:49:08.717Z,1.30
2023-05-14T15:51:39.624Z,1.00
2023-05-14T15:54:10.072Z,0.90
2023-05-14T15:56:41.217Z,0.10
2023-05-14T15:59:14.758Z,0.20
2023-05-14T16:01:44.997Z,0.30
2023-05-14T16:04:16.547Z,0.40
2023-05-14T16:06:49.717Z,0.50
2023-05-14T16:09:22.562Z,0.70
2023-05-14T16:11:54.596Z,0.30
2023-05-14T16:14:42.188Z,1.90
2023-05-14T16:17:12.591Z,0.50
2023-05-14T16:19:49.468Z,0.80
2023-05-14T16:22:22.137Z,0.40
2023-05-14T16:24:53.835Z,0.30
2023-05-14T16:27:24.653Z,0.30
2023-05-14T16:29:55.033Z,0.30
2023-05-14T16:32:27.410Z,1.40
2023-05-14T16:34:58.546Z,0.30
2023-05-14T16:37:29.247Z,0.10
2023-05-14T16:40:00.065Z,0.90
2023-05-14T16:42:30.736Z,0.60
2023-05-14T16:45:02.257Z,0.50
2023-05-14T16:47:33.212Z,1.10
2023-05-14T16:50:15.692Z,0.30
2023-05-14T16:52:49.796Z,0.40
2023-05-14T16:55:23.474Z,0.40
2023-05-14T16:57:57.197Z,0.10
2023-05-14T17:00:29.787Z,0.20
2023-05-14T17:03:03.330Z,0.20
2023-05-14T17:05:33.774Z,0.50
2023-05-14T17:08:04.899Z,0.80
2023-05-14T17:10:36.829Z,0.40
2023-05-14T17:13:08.289Z,0.30
2023-05-14T17:15:57.164Z,0.60
2023-05-14T17:18:27.888Z,0.50
2023-05-14T17:20:58.992Z,0.50
2023-05-14T17:23:30.555Z,0.30
2023-05-14T17:26:03.411Z,0.50
2023-05-14T17:28:43.246Z,0.80
2023-05-14T17:31:15.724Z,1.80
2023-05-14T17:33:46.366Z,1.10
2023-05-14T17:36:18.585Z,0.70
2023-05-14T17:38:49.376Z,1.60
2023-05-14T17:41:21.444Z,0.30
2023-05-14T17:43:52.742Z,1.00
2023-05-14T17:46:24.554Z,2.80
2023-05-14T17:48:54.986Z,1.10
2023-05-14T17:51:25.607Z,0.40
2023-05-14T17:54:01.259Z,0.40
2023-05-14T17:56:33.770Z,0.90
2023-05-14T17:59:14.990Z,0.30
2023-05-14T18:01:46.126Z,0.40
2023-05-14T18:04:16.369Z,0.70
2023-05-14T18:06:47.455Z,0.60
2023-05-14T18:09:17.600Z,0.50
2023-05-14T18:11:48.364Z,0.50
2023-05-14T18:14:18.773Z,2.20
2023-05-14T18:16:50.122Z,0.40
2023-05-14T18:19:32.703Z,0.50
2023-05-14T18:22:03.117Z,0.70
2023-05-14T18:24:33.659Z,0.50
2023-05-14T18:27:04.148Z,0.60
2023-05-14T18:29:36.668Z,0.70
2023-05-14T18:32:11.467Z,1.00
2023-05-14T18:34:43.258Z,0.80
2023-05-14T18:37:15.423Z,0.40
2023-05-14T18:39:45.842Z,0.80
2023-05-14T18:42:18.628Z,0.60
2023-05-14T18:44:50.243Z,0.80
2023-05-14T18:47:21.037Z,0.60
2023-05-14T18:49:56.110Z,0.60
2023-05-14T18:52:27.872Z,0.80
2023-05-14T18:55:01.864Z,0.30
2023-05-14T18:57:32.997Z,1.30
2023-05-14T19:00:06.099Z,1.60
2023-05-14T19:02:37.091Z,1.00
2023-05-14T19:05:09.819Z,0.90
2023-05-14T19:07:41.600Z,0.80
2023-05-14T19:10:15.609Z,0.80
2023-05-14T19:12:46.947Z,0.80
2023-05-14T19:15:17.665Z,1.30
2023-05-14T19:17:48.848Z,1.40
2023-05-14T19:20:20.892Z,1.10
2023-05-14T19:22:51.234Z,1.50
2023-05-14T19:25:24.623Z,1.40
2023-05-14T19:27:55.584Z,1.40
2023-05-14T19:30:26.538Z,1.30
2023-05-14T19:32:59.378Z,1.70
2023-05-14T19:35:30.031Z,2.00
2023-05-14T19:38:00.629Z,1.40
2023-05-14T19:40:31.074Z,1.70
2023-05-14T19:43:01.353Z,2.20
2023-05-14T19:45:31.991Z,2.40
2023-05-14T19:48:02.458Z,1.90
2023-05-14T19:50:33.901Z,2.10
2023-05-14T19:53:04.493Z,2.50
2023-05-14T19:55:34.936Z,1.90
2023-05-14T19:58:05.515Z,2.20
2023-05-14T20:00:37.206Z,2.20
2023-05-14T20:03:08.350Z,1.90
2023-05-14T20:05:44.940Z,2.70
2023-05-14T20:08:18.953Z,2.50
2023-05-14T20:10:49.800Z,2.30
2023-05-14T20:13:21.343Z,3.50
2023-05-14T20:16:00.788Z,3.10
2023-05-14T20:18:31.659Z,2.30
2023-05-14T20:21:03.572Z,2.10
2023-05-14T20:23:35.025Z,2.80
2023-05-14T20:26:05.763Z,2.70
2023-05-14T20:28:45.011Z,2.40
2023-05-14T20:31:17.533Z,2.70
2023-05-14T20:33:49.787Z,2.20
2023-05-14T20:36:29.630Z,2.90
2023-05-14T20:39:01.735Z,2.70
2023-05-14T20:41:34.411Z,2.50
2023-05-14T20:44:09.518Z,2.90
2023-05-14T20:46:43.373Z,2.80
2023-05-14T20:49:17.112Z,2.70
2023-05-14T20:51:47.988Z,3.00
2023-05-14T20:54:19.306Z,2.50
2023-05-14T20:56:49.899Z,2.80
2023-05-14T20:59:20.898Z,2.50
2023-05-14T21:01:52.746Z,2.30
2023-05-14T21:04:23.427Z,3.00
2023-05-14T21:06:54.812Z,2.70
2023-05-14T21:09:27.020Z,3.40
2023-05-14T21:11:57.483Z,3.30
2023-05-14T21:14:28.414Z,3.20
2023-05-14T21:17:00.374Z,2.30
2023-05-14T21:19:31.110Z,2.40
2023-05-14T21:22:01.496Z,2.90
2023-05-14T21:24:32.222Z,2.90
2023-05-14T21:27:03.054Z,2.40
2023-05-14T21:29:33.288Z,2.00
2023-05-14T21:32:03.717Z,3.30
2023-05-14T21:34:33.948Z,2.90
2023-05-14T21:37:04.523Z,2.70
2023-05-14T21:39:35.046Z,2.50
2023-05-14T21:42:07.413Z,2.60
2023-05-14T21:44:37.632Z,2.80
2023-05-14T21:47:09.158Z,2.00
2023-05-14T21:49:39.661Z,2.80
2023-05-14T21:52:10.542Z,2.50
2023-05-14T21:54:40.827Z,2.70
2023-05-14T21:57:11.040Z,2.40
2023-05-14T21:59:41.703Z,2.60
2023-05-14T22:02:12.179Z,2.40
2023-05-14T22:04:42.955Z,2.60
2023-05-14T22:07:13.432Z,3.50
2023-05-14T22:09:43.994Z,3.10
2023-05-14T22:12:14.265Z,2.90
2023-05-14T22:14:44.600Z,1.90
2023-05-14T22:17:15.034Z,2.50
2023-05-14T22:19:45.302Z,2.50
2023-05-14T22:22:15.598Z,1.90
2023-05-14T22:24:46.032Z,2.70
2023-05-14T22:27:16.214Z,2.20
2023-05-14T22:29:46.449Z,2.60
2023-05-14T22:32:16.812Z,1.80
2023-05-14T22:34:47.838Z,2.20
2023-05-14T22:37:19.318Z,2.30
2023-05-14T22:39:49.349Z,2.00
2023-05-14T22:42:20.512Z,1.60
2023-05-14T22:44:51.064Z,2.20
2023-05-14T22:47:21.704Z,1.60
2023-05-14T22:49:52.343Z,1.70
2023-05-14T22:52:22.713Z,2.10
2023-05-14T22:54:53.039Z,2.00
2023-05-14T22:57:23.286Z,1.70
2023-05-14T22:59:53.970Z,1.70
2023-05-14T23:02:24.327Z,1.90
2023-05-14T23:04:54.726Z,2.30
2023-05-14T23:07:25.154Z,2.30
2023-05-14T23:09:55.784Z,1.80
2023-05-14T23:12:25.992Z,2.20
2023-05-14T23:14:56.460Z,2.70
2023-05-14T23:17:27.122Z,2.40
2023-05-14T23:19:57.776Z,1.70
2023-05-14T23:22:28.076Z,1.80
2023-05-14T23:24:58.581Z,1.90
2023-05-14T23:27:28.804Z,2.00
2023-05-14T23:29:59.120Z,2.70
2023-05-14T23:32:29.555Z,2.50
2023-05-14T23:34:59.919Z,2.50
2023-05-14T23:37:30.313Z,2.60
2023-05-14T23:40:01.435Z,2.70
2023-05-14T23:42:31.891Z,1.90
2023-05-14T23:45:02.083Z,1.80
2023-05-14T23:47:32.578Z,1.90
2023-05-14T23:50:03.285Z,1.80
2023-05-14T23:52:33.580Z,2.20
2023-05-14T23:55:04.231Z,1.60
2023-05-14T23:57:35.355Z,2.00
